Time;durP1;ratioP1;P1;durP2;ratioP2;P2;SDS_P1;SDS_P2;PMS_P1;PMS_P2;Temp;Humidity;BMP_temperature;BMP_pressure;BME280_temperature;BME280_humidity;BME280_pressure;Samples;Min_cycle;Max_cycle;Signal;HPM_P1;HPM_P2
2021/07/04 00:00:33;;;;;;;4.30;2.10;;;;;;;26.92;53.41;100258.51;128365;1087;64667;-83
2021/07/04 00:03:50;;;;;;;2.60;1.77;;;;;;;26.92;53.29;100249.52;128368;1087;64123;-83
2021/07/04 00:06:36;;;;;;;;;;;;;;;;;;;;;
2021/07/04 00:09:38;;;;;;;4.23;1.90;;;;;;;26.91;53.50;100251.39;128413;1087;64233;-85
2021/07/04 00:12:07;;;;;;;3.00;1.80;;;;;;;26.91;53.49;100237.84;128384;1086;63910;-83
2021/07/04 00:14:47;;;;;;;3.57;2.00;;;;;;;26.91;53.26;100236.98;128398;1087;62834;-84
2021/07/04 00:17:13;;;;;;;3.40;1.90;;;;;;;26.91;53.14;100237.84;128069;1085;63955;-84
2021/07/04 00:19:50;;;;;;;3.37;1.90;;;;;;;26.91;53.35;100239.69;128369;1087;64331;-85
2021/07/04 00:22:17;;;;;;;3.50;2.10;;;;;;;26.91;53.31;100231.56;127976;1087;64269;-83
2021/07/04 00:24:52;;;;;;;3.30;2.10;;;;;;;26.91;53.35;100235.14;128368;1086;64130;-84
2021/07/04 00:27:45;;;;;;;3.73;1.93;;;;;;;26.90;53.42;100235.30;128375;1087;64278;-85
2021/07/04 00:30:31;;;;;;;2.80;1.90;;;;;;;26.90;53.45;100236.14;128430;1087;63948;-84
2021/07/04 00:33:07;;;;;;;3.47;1.70;;;;;;;26.89;53.28;100233.59;128365;1086;64137;-83
2021/07/04 00:35:33;;;;;;;3.77;2.03;;;;;;;26.89;53.28;100239.85;128394;1087;64137;-83
2021/07/04 00:38:12;;;;;;;2.67;1.73;;;;;;;26.90;53.46;100243.43;128391;1085;64135;-84
2021/07/04 00:41:25;;;;;;;3.60;2.10;;;;;;;26.90;53.15;100251.55;128406;1086;63914;-84
2021/07/04 00:43:30;;;;;;;3.37;1.90;;;;;;;26.88;53.39;100251.69;128330;1085;64035;-83
2021/07/04 00:46:30;;;;;;;2.83;1.83;;;;;;;26.89;53.08;100247.14;128390;1085;64221;-83
2021/07/04 00:49:07;;;;;;;3.33;2.03;;;;;;;26.89;53.25;100249.84;128402;1085;64186;-83
2021/07/04 00:51:34;;;;;;;2.77;1.77;;;;;;;26.88;53.33;100248.98;128398;1087;64160;-83
2021/07/04 00:54:23;;;;;;;3.40;1.83;;;;;;;26.88;53.31;100246.27;128354;1086;64045;-84
2021/07/04 00:57:10;;;;;;;2.67;1.90;;;;;;;26.87;53.28;100244.59;128257;1087;64282;-84
2021/07/04 00:59:44;;;;;;;2.93;1.87;;;;;;;26.88;53.36;100251.69;128360;1087;64173;-84
2021/07/04 01:02:28;;;;;;;3.27;1.70;;;;;;;26.89;53.33;100255.27;128413;1087;64208;-84
2021/07/04 01:05:11;;;;;;;3.37;1.70;;;;;;;26.87;53.37;100247.30;127995;1086;64291;-84
2021/07/04 01:08:03;;;;;;;3.18;1.83;;;;;;;26.88;53.28;100248.98;128379;1087;64137;-83
2021/07/04 01:10:41;;;;;;;3.60;1.80;;;;;;;26.86;53.26;100251.02;128351;1087;64173;-84
2021/07/04 01:13:51;;;;;;;3.07;1.90;;;;;;;26.87;53.49;100250.02;128386;1085;64102;-84
2021/07/04 01:16:23;;;;;;;3.20;1.90;;;;;;;26.87;53.32;100250.02;128383;1085;64112;-84
2021/07/04 01:19:01;;;;;;;2.70;1.90;;;;;;;26.86;53.42;100251.02;128364;1086;64102;-84
2021/07/04 01:21:46;;;;;;;2.87;1.87;;;;;;;26.87;53.24;100249.14;128373;1087;64095;-84
2021/07/04 01:24:13;;;;;;;3.23;1.90;;;;;;;26.87;53.33;100255.43;128405;1086;64156;-85
2021/07/04 01:26:42;;;;;;;2.57;1.60;;;;;;;26.87;53.27;100249.14;128374;1087;64182;-83
2021/07/04 01:29:32;;;;;;;2.47;1.83;;;;;;;26.86;53.33;100253.73;128363;1087;64108;-83
2021/07/04 01:32:20;;;;;;;3.33;1.90;;;;;;;26.86;53.38;100256.44;128396;1086;64285;-84
2021/07/04 01:34:57;;;;;;;3.77;2.00;;;;;;;26.86;53.35;100255.59;128395;1087;64181;-84
2021/07/04 01:37:44;;;;;;;2.93;1.77;;;;;;;26.86;53.31;100256.44;128355;1087;64157;-83
2021/07/04 01:40:17;;;;;;;2.80;1.90;;;;;;;26.86;53.37;100258.30;128381;1087;64099;-84
2021/07/04 01:42:51;;;;;;;3.70;2.03;;;;;;;26.86;53.19;100266.43;128350;1087;64147;-84
2021/07/04 01:45:37;;;;;;;2.70;1.80;;;;;;;26.86;53.40;100266.43;128388;1087;63945;-84
2021/07/04 01:48:18;;;;;;;3.37;2.10;;;;;;;26.85;53.34;100265.56;128388;1086;64259;-83
2021/07/04 01:50:57;;;;;;;2.33;1.70;;;;;;;26.85;53.38;100268.27;128382;1087;64735;-84
2021/07/04 01:53:35;;;;;;;2.87;1.80;;;;;;;26.85;53.27;100273.69;128392;1087;61725;-84
2021/07/04 01:56:58;;;;;;;3.30;1.80;;;;;;;26.84;53.30;100271.14;128379;1085;64150;-84
2021/07/04 01:59:06;;;;;;;3.57;2.07;;;;;;;26.85;53.34;100278.27;128276;1087;64134;-84
2021/07/04 02:01:43;;;;;;;2.97;1.80;;;;;;;26.85;53.39;100270.14;128338;1086;64137;-84
2021/07/04 02:04:27;;;;;;;2.90;1.73;;;;;;;26.84;53.33;100266.56;128402;1086;64101;-83
2021/07/04 02:07:04;;;;;;;3.80;1.90;;;;;;;26.84;53.25;100271.14;128416;1085;64137;-83
2021/07/04 02:09:33;;;;;;;2.43;1.70;;;;;;;26.84;53.39;100274.69;128366;1087;64178;-84
2021/07/04 02:12:21;;;;;;;2.70;1.70;;;;;;;26.84;53.18;100288.23;128381;1085;64159;-83
2021/07/04 02:15:13;;;;;;;2.93;1.77;;;;;;;26.84;53.25;100281.97;128392;1087;64147;-83
2021/07/04 02:17:45;;;;;;;4.43;2.10;;;;;;;26.82;53.39;100284.84;128397;1086;63990;-83
2021/07/04 02:20:34;;;;;;;;;;;;;;;26.80;53.52;100281.44;128396;1086;64134;-85
2021/07/04 02:23:26;;;;;;;2.90;1.90;;;;;;;26.81;53.24;100277.72;127891;1090;64157;-84
2021/07/04 02:25:56;;;;;;;3.40;1.90;;;;;;;26.80;53.21;100280.59;127905;1089;64145;-84
2021/07/04 02:28:34;;;;;;;3.07;1.90;;;;;;;26.82;53.34;100286.69;127798;1090;64137;-83
2021/07/04 02:31:00;;;;;;;3.70;1.85;;;;;;;26.81;53.44;100283.14;127721;1090;64175;-84
2021/07/04 02:34:00;;;;;;;4.75;2.10;;;;;;;26.82;53.55;100286.69;127875;1090;64256;-83
2021/07/04 02:36:32;;;;;;;3.90;2.10;;;;;;;26.81;53.25;100293.13;127893;1089;64317;-84
2021/07/04 02:39:13;;;;;;;3.10;1.87;;;;;;;26.80;53.40;100300.39;127907;1090;64151;-83
2021/07/04 02:41:42;;;;;;;3.73;1.90;;;;;;;26.81;53.35;100303.97;127902;1089;64260;-82
2021/07/04 02:44:17;;;;;;;3.23;1.80;;;;;;;26.81;53.31;100303.97;128396;1090;64185;-82
2021/07/04 02:46:53;;;;;;;2.83;1.83;;;;;;;26.82;53.29;100316.47;127943;1090;64134;-82
2021/07/04 02:49:21;;;;;;;2.90;1.75;;;;;;;26.82;53.50;100320.05;127884;1090;64102;-84
2021/07/04 02:51:56;;;;;;;2.45;1.63;;;;;;;26.82;53.31;100319.18;127918;1090;64125;-84
2021/07/04 02:54:46;;;;;;;3.30;1.87;;;;;;;26.81;53.27;100318.34;127902;1090;64269;-84
2021/07/04 02:57:15;;;;;;;3.80;1.67;;;;;;;26.81;53.41;100322.92;127906;1090;65297;-84
2021/07/04 03:00:06;;;;;;;3.27;2.07;;;;;;;26.82;53.35;100313.77;127930;1087;64250;-84
2021/07/04 03:02:42;;;;;;;3.10;2.00;;;;;;;26.81;53.27;100318.34;128428;1085;64119;-84
2021/07/04 03:05:49;;;;;;;3.30;2.00;;;;;;;26.80;53.32;100319.34;127933;1090;64154;-84
2021/07/04 03:08:29;;;;;;;3.43;2.03;;;;;;;26.81;53.39;100318.34;127913;1090;64219;-83
2021/07/04 03:11:26;;;;;;;2.83;1.90;;;;;;;26.82;53.38;100328.17;127916;1090;64224;-83
2021/07/04 03:14:30;;;;;;;;;;;;;;;;;;;;;
2021/07/04 03:17:17;;;;;;;4.37;1.87;;;;;;;26.81;53.15;100331.05;127935;1090;64316;-84
2021/07/04 03:19:54;;;;;;;3.50;1.90;;;;;;;26.82;53.34;100330.01;127901;1090;64169;-83
2021/07/04 03:22:34;;;;;;;2.73;1.77;;;;;;;26.82;53.21;100330.88;127903;1090;64147;-83
2021/07/04 03:25:09;;;;;;;3.73;1.97;;;;;;;26.83;53.26;100331.72;127921;1090;61878;-84
2021/07/04 03:27:41;;;;;;;2.50;1.70;;;;;;;26.81;53.31;100329.17;127902;1090;64461;-83
2021/07/04 03:30:38;;;;;;;3.57;2.07;;;;;;;26.82;53.29;100330.01;127792;1090;64082;-84
2021/07/04 03:33:05;;;;;;;3.30;2.00;;;;;;;26.82;53.45;100333.59;127948;1090;64140;-83
2021/07/04 03:35:49;;;;;;;4.40;1.87;;;;;;;26.82;53.35;100332.72;127897;1090;64323;-83
2021/07/04 03:38:29;;;;;;;3.53;2.10;;;;;;;26.82;53.14;100327.30;127763;1090;64140;-83
2021/07/04 03:40:59;;;;;;;4.80;2.00;;;;;;;26.81;53.32;100326.47;127914;1090;64387;-83
2021/07/04 03:43:37;;;;;;;2.73;1.70;;;;;;;26.81;53.26;100331.88;128171;1087;64195;-83
2021/07/04 03:46:23;;;;;;;3.30;2.10;;;;;;;26.81;53.27;100334.59;128408;1087;64122;-85
2021/07/04 03:48:55;;;;;;;2.70;1.87;;;;;;;26.81;53.29;100318.34;128403;1087;64184;-83
2021/07/04 03:51:42;;;;;;;2.87;1.80;;;;;;;26.82;53.20;100321.89;128380;1087;64104;-83
2021/07/04 03:54:37;;;;;;;3.80;1.90;;;;;;;26.81;53.17;100325.63;128388;1087;63955;-84
2021/07/04 03:57:24;;;;;;;3.00;1.87;;;;;;;26.82;53.16;100327.30;128396;1086;64140;-84
2021/07/04 04:00:01;;;;;;;3.13;2.00;;;;;;;26.82;53.16;100325.47;128372;1086;64147;-84
2021/07/04 04:02:46;;;;;;;;;;;;;;;;;;;;;
2021/07/04 04:05:34;;;;;;;;;;;;;;;;;;;;;
2021/07/04 04:08:32;;;;;;;2.98;2.10;;;;;;;26.83;53.03;100326.30;127885;1089;64122;-85
2021/07/04 04:11:03;;;;;;;3.00;1.90;;;;;;;26.83;53.30;100327.17;127912;1089;64138;-84
2021/07/04 04:13:33;;;;;;;4.23;2.00;;;;;;;26.84;53.04;100334.27;127901;1090;64834;-83
2021/07/04 04:16:02;;;;;;;2.93;1.80;;;;;;;26.84;53.13;100330.72;127949;1090;64191;-83
2021/07/04 04:18:44;;;;;;;3.37;2.00;;;;;;;26.84;53.17;100328.02;127922;1090;64363;-85
2021/07/04 04:21:45;;;;;;;3.90;2.10;;;;;;;26.83;53.03;100320.89;127886;1090;65294;-84
2021/07/04 04:24:25;;;;;;;3.47;2.30;;;;;;;26.83;53.24;100326.30;127892;1090;64211;-83
2021/07/04 04:26:56;;;;;;;3.30;1.93;;;;;;;26.84;52.99;100333.42;127913;1090;64258;-84
2021/07/04 04:29:38;;;;;;;2.90;1.87;;;;;;;26.83;53.05;100334.42;127893;1090;64256;-83
2021/07/04 04:32:08;;;;;;;4.83;2.10;;;;;;;26.83;53.13;100329.88;127917;1090;64186;-84
2021/07/04 04:34:58;;;;;;;2.90;2.07;;;;;;;26.83;53.10;100337.13;127888;1090;64221;-84
2021/07/04 04:37:37;;;;;;;3.70;2.18;;;;;;;26.83;53.26;100337.13;127933;1090;64314;-84
2021/07/04 04:40:43;;;;;;;3.87;1.97;;;;;;;26.84;53.12;100325.30;127908;1090;64282;-84
2021/07/04 04:43:36;;;;;;;3.13;2.10;;;;;;;26.84;53.09;100334.27;127902;1089;64141;-85
2021/07/04 04:46:25;;;;;;;4.80;2.03;;;;;;;26.83;53.12;100335.30;127907;1090;64123;-80
2021/07/04 04:49:01;;;;;;;3.70;2.00;;;;;;;26.84;52.99;100333.42;127952;1090;64167;-84
2021/07/04 04:51:31;;;;;;;3.17;1.90;;;;;;;26.83;53.05;100335.30;127936;1090;64182;-84
2021/07/04 04:54:17;;;;;;;2.80;1.87;;;;;;;26.84;52.98;100338.84;127899;1090;64138;-83
2021/07/04 04:56:56;;;;;;;;;;;;;;;;;;;;;
2021/07/04 04:59:40;;;;;;;;;;;;;;;;;;;;;
2021/07/04 05:02:10;;;;;;;4.43;2.10;;;;;;;26.84;53.02;100331.55;127897;1090;64141;-84
2021/07/04 05:04:57;;;;;;;;;;;;;;;;;;;;;
2021/07/04 05:07:41;;;;;;;3.57;2.10;;;;;;;26.84;53.05;100342.39;127906;1090;64146;-84
2021/07/04 05:10:46;;;;;;;3.97;2.10;;;;;;;26.84;53.08;100339.67;127906;1090;64127;-84
2021/07/04 05:13:19;;;;;;;3.80;2.10;;;;;;;26.86;53.11;100332.26;127897;1090;64281;-84
2021/07/04 05:15:58;;;;;;;3.73;1.93;;;;;;;26.88;52.91;100334.80;127915;1090;61924;-84
2021/07/04 05:18:44;;;;;;;3.37;2.00;;;;;;;26.90;52.96;100332.80;127924;1090;64243;-84
2021/07/04 05:21:19;;;;;;;3.07;2.00;;;;;;;26.92;53.03;100330.77;127931;1090;63958;-84
2021/07/04 05:23:55;;;;;;;3.10;2.07;;;;;;;26.93;52.94;100338.73;127906;1090;64151;-83
2021/07/04 05:26:33;;;;;;;4.63;2.10;;;;;;;26.95;52.97;100332.31;127916;1090;64099;-83
2021/07/04 05:29:10;;;;;;;3.03;2.00;;;;;;;26.97;53.02;100336.56;127926;1090;64137;-84
2021/07/04 05:31:56;;;;;;;3.47;2.30;;;;;;;26.99;52.96;100322.84;127912;1090;63971;-84
2021/07/04 05:34:27;;;;;;;3.73;2.00;;;;;;;27.00;53.00;100329.97;127911;1090;64147;-84
2021/07/04 05:36:57;;;;;;;3.90;2.20;;;;;;;27.00;52.88;100328.10;127911;1090;64114;-84
2021/07/04 05:39:48;;;;;;;3.50;2.37;;;;;;;27.00;53.22;100327.27;127902;1090;64349;-84
2021/07/04 05:42:19;;;;;;;3.30;2.00;;;;;;;27.01;52.90;100328.97;127957;1088;64993;-83
2021/07/04 05:44:58;;;;;;;3.90;2.00;;;;;;;27.02;53.20;100327.94;127910;1090;65354;-84
2021/07/04 05:47:34;;;;;;;2.80;1.90;;;;;;;27.04;52.79;100324.06;127921;1090;64543;-84
2021/07/04 05:50:20;;;;;;;3.23;2.00;;;;;;;27.05;52.97;100330.34;127914;1090;64105;-84
2021/07/04 05:52:56;;;;;;;3.10;2.00;;;;;;;27.07;52.88;100331.02;127940;1090;64268;-83
2021/07/04 05:55:50;;;;;;;3.33;2.13;;;;;;;27.08;53.13;100327.30;127896;1090;64096;-84
2021/07/04 05:58:31;;;;;;;3.70;2.20;;;;;;;27.10;53.05;100322.59;127929;1089;64262;-84
2021/07/04 06:01:00;;;;;;;2.93;2.10;;;;;;;27.11;52.96;100326.97;127895;1089;64105;-84
2021/07/04 06:04:04;;;;;;;3.17;2.10;;;;;;;27.12;52.90;100323.27;127931;1090;64313;-84
2021/07/04 06:06:43;;;;;;;3.17;2.00;;;;;;;27.14;52.89;100331.22;127899;1089;64122;-84
2021/07/04 06:09:18;;;;;;;3.00;1.90;;;;;;;27.16;52.74;100335.47;127896;1090;64288;-84
2021/07/04 06:11:49;;;;;;;3.17;2.07;;;;;;;27.16;52.66;100327.34;127897;1090;64291;-85
2021/07/04 06:14:27;;;;;;;;;;;;;;;;;;;;;
2021/07/04 06:16:53;;;;;;;3.05;2.10;;;;;;;27.18;52.61;100324.47;127924;1088;63959;-83
2021/07/04 06:19:48;;;;;;;4.10;2.10;;;;;;;27.18;52.71;100322.63;127923;1089;64144;-84
2021/07/04 06:22:20;;;;;;;3.30;2.10;;;;;;;27.19;52.83;100318.91;127917;1090;64202;-83
2021/07/04 06:25:22;;;;;;;3.70;2.20;;;;;;;27.20;52.79;100317.05;127813;1090;64733;-84
2021/07/04 06:28:16;;;;;;;3.87;2.10;;;;;;;27.22;52.60;100315.00;127918;1090;64249;-84
2021/07/04 06:31:00;;;;;;;3.47;2.07;;;;;;;27.22;52.61;100313.16;127880;1089;64387;-83
2021/07/04 06:33:30;;;;;;;3.13;2.00;;;;;;;27.23;52.78;100316.71;127921;1090;64166;-83
2021/07/04 06:36:37;;;;;;;2.70;1.90;;;;;;;27.24;52.59;100316.54;127922;1089;64892;-84
2021/07/04 06:39:13;;;;;;;3.50;2.00;;;;;;;27.24;52.75;100321.13;127929;1090;64186;-83
2021/07/04 06:41:59;;;;;;;3.23;2.13;;;;;;;27.24;52.57;100321.96;127890;1090;64322;-84
2021/07/04 06:44:56;;;;;;;2.80;1.90;;;;;;;27.26;52.66;100319.12;127919;1089;64218;-83
2021/07/04 06:47:42;;;;;;;3.83;2.30;;;;;;;27.25;52.77;100318.25;127924;1089;64022;-83
2021/07/04 06:50:32;;;;;;;3.55;2.10;;;;;;;27.26;52.63;100311.83;127927;1089;64134;-85
2021/07/04 06:53:28;;;;;;;3.53;2.17;;;;;;;27.26;52.64;100303.70;127912;1090;64285;-84
2021/07/04 06:55:55;;;;;;;3.73;2.00;;;;;;;27.27;52.76;100304.53;127910;1088;64140;-84
2021/07/04 06:58:52;;;;;;;3.40;2.30;;;;;;;27.28;52.52;100302.69;127916;1090;64157;-85
2021/07/04 07:01:48;;;;;;;3.20;2.00;;;;;;;27.27;52.73;100307.23;128140;1087;64099;-84
2021/07/04 07:04:37;;;;;;;3.13;2.10;;;;;;;27.28;52.48;100299.98;128361;1086;64160;-83
2021/07/04 07:07:28;;;;;;;3.13;1.90;;;;;;;27.27;52.46;100301.82;128367;1087;64291;-84
2021/07/04 07:10:17;;;;;;;2.90;1.90;;;;;;;27.28;52.72;100298.11;127933;1087;65875;-84
2021/07/04 07:12:46;;;;;;;;;;;;;;;27.26;52.76;100292.86;127941;1087;63964;-84
2021/07/04 07:15:35;;;;;;;;;;;;;;;;;;;;;
2021/07/04 07:18:22;;;;;;;2.93;1.90;;;;;;;27.27;52.47;100290.98;127925;1085;64227;-84
2021/07/04 07:21:07;;;;;;;;;;;;;;;;;;;;;
2021/07/04 07:23:57;;;;;;;3.00;1.97;;;;;;;27.26;52.52;100282.02;127919;1087;64144;-81
2021/07/04 07:26:39;;;;;;;4.00;1.90;;;;;;;27.28;52.45;100286.44;127913;1087;64283;-83
2021/07/04 07:29:53;;;;;;;3.27;2.10;;;;;;;27.27;52.57;100288.27;127904;1087;64138;-84
2021/07/04 07:32:26;;;;;;;3.10;1.90;;;;;;;27.27;52.56;100282.85;127953;1087;64054;-84
2021/07/04 07:35:05;;;;;;;3.47;1.90;;;;;;;27.28;52.75;100287.27;127894;1087;64221;-84
2021/07/04 07:37:52;;;;;;;3.30;2.00;;;;;;;27.28;52.51;100286.44;127924;1087;64137;-83
2021/07/04 07:40:42;;;;;;;2.90;1.90;;;;;;;27.29;52.65;100283.55;127935;1087;64160;-85
2021/07/04 07:43:12;;;;;;;3.70;1.90;;;;;;;27.29;52.50;100285.39;127929;1087;64141;-84
2021/07/04 07:45:51;;;;;;;;;;;;;;;;;;;;;
2021/07/04 07:48:30;;;;;;;2.90;2.00;;;;;;;27.28;52.73;100281.02;128248;1086;64195;-84
2021/07/04 07:51:38;;;;;;;2.98;1.85;;;;;;;27.28;52.67;100270.17;128350;1086;64146;-83
2021/07/04 07:54:34;;;;;;;3.10;2.17;;;;;;;27.26;52.81;100268.47;128393;1087;64123;-84
2021/07/04 07:57:26;;;;;;;3.27;2.20;;;;;;;27.28;52.52;100281.02;128368;1087;64099;-84
2021/07/04 08:00:17;;;;;;;2.90;1.90;;;;;;;27.28;52.62;100272.88;128390;1087;64397;-84
2021/07/04 08:02:59;;;;;;;2.70;2.00;;;;;;;27.28;52.63;100267.47;128370;1087;64264;-83
2021/07/04 08:05:35;;;;;;;3.00;1.87;;;;;;;27.28;52.80;100281.84;128400;1086;64110;-83
2021/07/04 08:08:20;;;;;;;2.90;1.80;;;;;;;27.28;52.67;100273.72;128396;1087;64816;-83
2021/07/04 08:11:07;;;;;;;3.40;1.90;;;;;;;27.28;52.51;100271.01;128360;1086;64323;-84
2021/07/04 08:14:01;;;;;;;;;;;;;;;;;;;;;
2021/07/04 08:16:40;;;;;;;2.70;2.10;;;;;;;27.28;52.52;100273.72;128409;1086;64131;-83
2021/07/04 08:19:12;;;;;;;3.37;2.00;;;;;;;27.29;52.67;100263.72;128380;1086;64144;-83
2021/07/04 08:21:40;;;;;;;3.30;1.90;;;;;;;27.29;52.61;100282.69;128351;1087;64135;-83
2021/07/04 08:24:16;;;;;;;3.17;1.97;;;;;;;27.29;52.44;100269.14;128340;1087;64170;-84
2021/07/04 08:27:13;;;;;;;3.20;1.83;;;;;;;27.29;52.56;100270.00;128361;1086;64244;-83
2021/07/04 08:29:51;;;;;;;4.33;2.10;;;;;;;27.29;52.41;100269.14;128372;1087;64131;-84
2021/07/04 08:32:26;;;;;;;3.10;1.83;;;;;;;27.28;52.46;100281.84;128342;1086;64411;-85
2021/07/04 08:35:09;;;;;;;;;;;;;;;;;;;;;
2021/07/04 08:37:56;;;;;;;3.00;1.87;;;;;;;27.28;52.34;100271.01;128363;1087;64256;-83
2021/07/04 08:40:45;;;;;;;2.80;1.90;;;;;;;27.28;52.27;100265.59;128374;1087;64236;-84
2021/07/04 08:43:54;;;;;;;;;;;;;;;;;;;;;
2021/07/04 08:46:41;;;;;;;2.67;2.00;;;;;;;27.28;52.52;100260.17;127873;1090;64144;-84
2021/07/04 08:49:30;;;;;;;3.37;2.00;;;;;;;27.29;52.67;100261.00;127750;1090;64295;-84
2021/07/04 08:52:20;;;;;;;4.63;2.13;;;;;;;27.29;52.21;100263.72;127919;1090;63914;-84
2021/07/04 08:55:02;;;;;;;2.83;1.90;;;;;;;27.28;52.27;100262.88;127910;1090;64147;-84
2021/07/04 08:57:38;;;;;;;3.20;2.10;;;;;;;27.28;52.33;100259.33;127934;1090;64144;-84
2021/07/04 09:00:26;;;;;;;2.70;1.90;;;;;;;27.28;52.20;100253.91;127940;1090;64141;-83
2021/07/04 09:03:24;;;;;;;2.60;1.90;;;;;;;27.27;52.16;100255.75;127902;1089;64770;-84
2021/07/04 09:06:11;;;;;;;2.88;1.83;;;;;;;27.26;52.06;100252.20;127862;1090;64138;-84
2021/07/04 09:08:54;;;;;;;2.57;1.83;;;;;;;27.28;52.14;100248.49;127906;1090;64163;-85
2021/07/04 09:11:32;;;;;;;2.27;1.70;;;;;;;27.27;52.33;100255.75;127951;1090;64141;-83
2021/07/04 09:14:05;;;;;;;3.93;1.90;;;;;;;27.27;52.31;100247.63;127918;1090;64160;-84
2021/07/04 09:16:39;;;;;;;3.07;1.90;;;;;;;27.27;52.53;100253.05;127910;1090;64147;-84
2021/07/04 09:19:22;;;;;;;;;;;;;;;;;;;;;
2021/07/04 09:22:27;;;;;;;2.67;1.80;;;;;;;27.27;52.51;100242.20;127969;1088;64261;-83
2021/07/04 09:25:09;;;;;;;2.70;1.80;;;;;;;27.25;52.42;100252.38;127891;1088;64147;-84
2021/07/04 09:27:43;;;;;;;3.40;2.20;;;;;;;27.25;52.27;100242.38;127908;1090;64275;-84
2021/07/04 09:30:34;;;;;;;3.07;2.00;;;;;;;27.26;52.30;100244.08;127942;1089;64223;-84
2021/07/04 09:33:35;;;;;;;;;;;;;;;;;;;;;
2021/07/04 09:36:28;;;;;;;3.07;2.03;;;;;;;27.25;52.43;100236.95;127898;1089;64221;-84
2021/07/04 09:39:06;;;;;;;3.07;2.00;;;;;;;27.25;52.26;100242.38;127891;1090;64275;-84
2021/07/04 09:42:02;;;;;;;2.63;1.87;;;;;;;27.24;52.66;100235.25;127926;1090;64341;-84
2021/07/04 09:45:07;;;;;;;2.80;2.00;;;;;;;27.23;52.58;100230.88;127889;1090;62879;-84
2021/07/04 09:48:03;;;;;;;3.05;1.80;;;;;;;27.24;52.39;100237.13;127934;1090;64105;-83
2021/07/04 09:50:38;;;;;;;2.67;1.80;;;;;;;27.23;52.55;100225.45;127892;1090;64149;-83
2021/07/04 09:53:05;;;;;;;2.50;1.87;;;;;;;27.24;52.69;100226.28;127924;1090;64090;-83
2021/07/04 09:55:51;;;;;;;2.67;1.80;;;;;;;27.24;52.55;100226.28;127898;1088;64323;-83
2021/07/04 09:58:37;;;;;;;2.70;2.00;;;;;;;27.24;52.36;100221.70;127938;1090;64150;-84
2021/07/04 10:01:04;;;;;;;2.87;1.90;;;;;;;27.24;52.22;100216.28;128004;1087;64298;-84
2021/07/04 10:03:47;;;;;;;2.53;1.60;;;;;;;27.24;52.06;100218.16;128378;1087;64237;-84
2021/07/04 10:06:25;;;;;;;3.70;1.80;;;;;;;27.23;52.13;100216.45;128399;1085;64150;-84
2021/07/04 10:09:07;;;;;;;;;;;;;;;;;;;;;
2021/07/04 10:11:45;;;;;;;2.43;1.77;;;;;;;27.23;52.01;100205.61;128390;1087;64546;-84
2021/07/04 10:14:23;;;;;;;2.90;2.10;;;;;;;27.23;51.93;100209.19;128344;1087;63942;-84
2021/07/04 10:17:22;;;;;;;2.80;2.00;;;;;;;27.23;51.93;100211.03;128345;1087;64251;-83
2021/07/04 10:20:13;;;;;;;;;;;;;;;;;;;;;
2021/07/04 10:23:01;;;;;;;2.60;1.83;;;;;;;27.22;51.77;100212.04;128382;1087;64182;-84
2021/07/04 10:25:44;;;;;;;3.00;1.93;;;;;;;27.22;51.77;100218.33;128393;1086;64175;-85
2021/07/04 10:28:17;;;;;;;2.70;1.80;;;;;;;27.22;51.83;100209.33;128386;1086;64144;-83
2021/07/04 10:30:48;;;;;;;2.13;1.70;;;;;;;27.22;51.67;100214.75;128381;1087;64137;-83
2021/07/04 10:33:32;;;;;;;3.20;1.90;;;;;;;27.22;51.64;100212.04;128372;1087;64278;-84
2021/07/04 10:36:38;;;;;;;;;;;;;;;;;;;;;
2021/07/04 10:39:10;;;;;;;2.53;1.73;;;;;;;27.22;51.67;100220.17;128369;1087;64131;-84
2021/07/04 10:41:49;;;;;;;2.90;1.87;;;;;;;27.22;51.79;100209.33;128392;1087;64211;-83
2021/07/04 10:44:41;;;;;;;2.83;1.97;;;;;;;27.22;51.56;100217.45;128347;1086;64345;-84
2021/07/04 10:47:33;;;;;;;2.40;1.87;;;;;;;27.22;51.79;100214.75;128379;1085;64111;-84
2021/07/04 10:50:28;;;;;;;2.97;1.90;;;;;;;27.22;51.67;100209.33;128106;1086;64214;-84
2021/07/04 10:53:05;;;;;;;2.73;2.00;;;;;;;27.22;51.48;100207.48;128365;1087;64096;-84
2021/07/04 10:55:37;;;;;;;3.10;2.03;;;;;;;27.22;51.41;100203.91;127984;1085;64106;-83
2021/07/04 10:58:24;;;;;;;3.00;1.90;;;;;;;27.22;51.48;100209.33;128334;1087;64128;-84
2021/07/04 11:00:57;;;;;;;2.45;1.90;;;;;;;27.22;51.48;100206.63;128385;1087;64000;-84
2021/07/04 11:03:51;;;;;;;3.07;2.10;;;;;;;27.23;51.57;100205.61;128384;1087;64150;-84
2021/07/04 11:07:03;;;;;;;2.83;2.10;;;;;;;27.21;51.56;100208.50;128381;1086;64137;-84
2021/07/04 11:10:06;;;;;;;3.20;2.10;;;;;;;27.21;51.40;100202.23;127880;1087;64109;-83
2021/07/04 11:13:15;;;;;;;3.73;1.90;;;;;;;27.21;51.38;100199.53;127948;1085;64257;-84
2021/07/04 11:16:12;;;;;;;2.57;1.80;;;;;;;27.20;51.47;100198.66;127901;1087;64141;-83
2021/07/04 11:19:27;;;;;;;3.13;2.10;;;;;;;27.22;51.41;100201.20;127885;1087;64243;-83
2021/07/04 11:22:16;;;;;;;;;;;;;;;;;;;;;
2021/07/04 11:25:14;;;;;;;3.07;1.93;;;;;;;27.21;51.21;100204.95;127802;1090;64144;-84
2021/07/04 11:27:45;;;;;;;2.90;2.17;;;;;;;27.22;51.38;100209.33;127885;1087;64291;-84
2021/07/04 11:30:44;;;;;;;2.33;1.83;;;;;;;27.21;51.61;100208.50;127897;1087;64137;-84
2021/07/04 11:33:44;;;;;;;2.95;2.03;;;;;;;27.21;51.32;100200.36;127885;1087;64140;-84
2021/07/04 11:36:51;;;;;;;2.80;2.00;;;;;;;27.22;51.20;100199.36;127926;1087;64171;-85
2021/07/04 11:39:34;;;;;;;3.20;2.13;;;;;;;27.22;51.56;100198.49;127899;1087;63981;-83
2021/07/04 11:42:20;;;;;;;3.20;1.90;;;;;;;27.23;51.56;100194.78;127915;1087;64141;-83
2021/07/04 11:44:53;;;;;;;2.63;2.03;;;;;;;27.22;51.24;100193.94;128295;1087;64259;-84
2021/07/04 11:47:20;;;;;;;2.73;2.07;;;;;;;27.22;51.17;100201.20;128412;1085;64317;-83
2021/07/04 11:50:11;;;;;;;2.77;1.90;;;;;;;27.23;51.29;100203.77;128364;1085;64107;-84
2021/07/04 11:52:43;;;;;;;3.33;2.20;;;;;;;27.22;51.12;100204.78;128388;1087;64703;-83
2021/07/04 11:55:44;;;;;;;2.93;1.97;;;;;;;27.23;51.21;100209.19;128350;1087;64294;-84
2021/07/04 11:58:33;;;;;;;3.07;2.07;;;;;;;27.23;51.22;100211.03;128422;1087;64136;-84
2021/07/04 12:01:12;;;;;;;2.80;1.77;;;;;;;27.22;51.42;100199.36;128397;1086;64102;-83
2021/07/04 12:04:24;;;;;;;2.87;1.90;;;;;;;27.22;51.42;100198.49;128380;1087;64198;-84
2021/07/04 12:07:01;;;;;;;3.10;2.20;;;;;;;27.22;51.42;100198.49;128060;1085;64131;-83
2021/07/04 12:09:55;;;;;;;2.73;2.00;;;;;;;27.22;51.51;100206.63;128389;1085;64215;-84
2021/07/04 12:12:46;;;;;;;3.23;2.20;;;;;;;27.21;51.32;100197.66;128363;1087;64284;-83
2021/07/04 12:15:33;;;;;;;2.97;2.00;;;;;;;27.22;51.28;100198.49;127977;1087;64146;-83
2021/07/04 12:18:23;;;;;;;3.13;2.20;;;;;;;27.21;51.16;100196.82;128359;1087;64141;-84
2021/07/04 12:21:40;;;;;;;2.93;2.20;;;;;;;27.21;51.17;100196.82;128367;1087;64104;-83
2021/07/04 12:24:34;;;;;;;3.73;2.30;;;;;;;27.20;51.20;100187.83;127889;1087;64104;-84
2021/07/04 12:27:09;;;;;;;2.83;2.10;;;;;;;27.21;50.95;100188.69;127917;1087;64138;-83
2021/07/04 12:30:15;;;;;;;2.83;2.07;;;;;;;27.21;50.92;100183.27;127889;1087;64304;-84
2021/07/04 12:33:04;;;;;;;3.20;2.00;;;;;;;27.20;50.82;100178.86;127935;1087;64162;-83
2021/07/04 12:36:12;;;;;;;3.80;2.13;;;;;;;27.21;50.94;100178.69;127907;1087;64160;-83
2021/07/04 12:38:43;;;;;;;3.87;2.30;;;;;;;27.21;50.88;100178.69;127924;1087;64269;-84
2021/07/04 12:41:53;;;;;;;2.90;2.10;;;;;;;27.21;50.88;100169.72;127676;1090;64109;-84
2021/07/04 12:45:00;;;;;;;3.07;2.20;;;;;;;27.21;50.86;100175.98;127640;1093;64344;-84
2021/07/04 12:47:44;;;;;;;3.20;2.13;;;;;;;27.20;50.85;100171.56;127315;1093;63965;-83
2021/07/04 12:50:36;;;;;;;3.20;2.00;;;;;;;27.22;50.65;100169.55;127649;1091;64327;-84
2021/07/04 12:53:27;;;;;;;;;;;;;;;;;;;;;
2021/07/04 12:56:22;;;;;;;3.50;2.30;;;;;;;27.22;50.60;100164.14;127289;1093;64744;-83
2021/07/04 12:59:15;;;;;;;3.40;2.33;;;;;;;27.24;50.55;100169.38;127284;1093;64583;-84
2021/07/04 13:02:12;;;;;;;2.67;2.10;;;;;;;27.24;50.72;100162.09;127481;1089;64154;-83
2021/07/04 13:05:06;;;;;;;3.90;2.47;;;;;;;27.23;50.52;100157.71;127304;1091;64139;-84